Time;durP1;ratioP1;P1;durP2;ratioP2;P2;SDS_P1;SDS_P2;PMS_P1;PMS_P2;Temp;Humidity;BMP_temperature;BMP_pressure;BME280_temperature;BME280_humidity;BME280_pressure;Samples;Min_cycle;Max_cycle;Signal;HPM_P1;HPM_P2
2023/09/25 00:01:55;;;;;;;2.40;2.03;;;21.00;95.20;;;;;;4983644;28;20509;-61
2023/09/25 00:04:25;;;;;;;1.50;1.40;;;21.10;95.20;;;;;;4976022;28;20740;-56
2023/09/25 00:06:52;;;;;;;1.50;1.40;;;21.00;95.20;;;;;;4985369;28;20459;-60
2023/09/25 00:09:20;;;;;;;3.60;2.00;;;21.00;95.20;;;;;;4984873;28;21378;-60
2023/09/25 00:11:46;;;;;;;1.75;1.40;;;21.00;95.30;;;;;;4986931;28;20205;-53
2023/09/25 00:14:13;;;;;;;1.80;1.70;;;21.10;95.30;;;;;;4983397;28;20767;-56
2023/09/25 00:16:41;;;;;;;1.60;1.35;;;21.00;95.20;;;;;;4984810;28;20466;-59
2023/09/25 00:19:07;;;;;;;2.08;1.88;;;21.00;95.30;;;;;;4984058;28;20223;-59
2023/09/25 00:21:34;;;;;;;1.83;1.58;;;21.10;95.30;;;;;;4985277;28;20204;-59
2023/09/25 00:24:01;;;;;;;1.80;1.50;;;21.10;95.30;;;;;;4985407;28;20205;-57
2023/09/25 00:26:29;;;;;;;1.45;1.35;;;21.10;95.30;;;;;;4983097;28;20211;-61
2023/09/25 00:28:55;;;;;;;1.50;1.40;;;21.00;95.30;;;;;;4987532;28;20216;-61
2023/09/25 00:31:22;;;;;;;1.83;1.73;;;21.00;95.30;;;;;;4985386;28;20189;-59
2023/09/25 00:33:50;;;;;;;2.55;1.83;;;21.00;95.30;;;;;;4983290;28;20188;-56
2023/09/25 00:36:17;;;;;;;1.57;1.47;;;21.10;95.40;;;;;;4987714;28;20208;-59
2023/09/25 00:38:44;;;;;;;1.80;1.70;;;21.00;95.30;;;;;;4985572;28;20483;-56
2023/09/25 00:41:11;;;;;;;1.70;1.48;;;21.00;95.40;;;;;;4985544;28;20443;-59
2023/09/25 00:43:39;;;;;;;1.75;1.65;;;21.00;95.40;;;;;;4987690;28;20466;-61
2023/09/25 00:46:05;;;;;;;1.92;1.38;;;21.00;95.40;;;;;;4986184;28;20396;-59
2023/09/25 00:48:32;;;;;;;1.30;1.20;;;21.00;95.40;;;;;;4987751;28;20205;-59
2023/09/25 00:51:00;;;;;;;1.90;1.55;;;21.00;95.40;;;;;;4983881;28;20211;-59
2023/09/25 00:53:29;;;;;;;1.38;1.25;;;21.00;95.40;;;;;;4986694;28;20205;-53
2023/09/25 00:55:57;;;;;;;1.50;1.40;;;21.00;95.40;;;;;;4984929;28;20197;-59
2023/09/25 00:58:24;;;;;;;2.00;1.75;;;21.00;95.40;;;;;;4984490;28;20219;-56
2023/09/25 01:00:53;;;;;;;1.60;1.40;;;21.00;95.40;;;;;;4982791;28;20203;-62
2023/09/25 01:03:20;;;;;;;1.77;1.45;;;21.00;95.50;;;;;;4984367;28;20208;-62
2023/09/25 01:05:47;;;;;;;1.83;1.65;;;21.00;95.50;;;;;;4983762;28;20201;-54
2023/09/25 01:08:14;;;;;;;2.15;1.55;;;21.00;95.50;;;;;;4987717;28;20205;-60
2023/09/25 01:10:42;;;;;;;2.90;1.67;;;21.00;95.50;;;;;;4984132;28;20223;-56
2023/09/25 01:13:09;;;;;;;1.80;1.60;;;21.00;95.50;;;;;;4984138;28;20200;-61
2023/09/25 01:15:37;;;;;;;1.63;1.40;;;21.00;95.50;;;;;;4983625;28;20223;-59
2023/09/25 01:18:05;;;;;;;1.52;1.42;;;21.00;95.50;;;;;;4983777;28;20218;-55
2023/09/25 01:20:32;;;;;;;2.05;1.60;;;21.00;95.50;;;;;;4984993;28;20201;-56
2023/09/25 01:23:01;;;;;;;2.15;1.60;;;21.00;95.50;;;;;;4984913;28;21006;-53
2023/09/25 01:25:28;;;;;;;1.40;1.30;;;21.00;95.50;;;;;;4985101;28;20553;-59
2023/09/25 01:27:55;;;;;;;2.30;1.70;;;21.00;95.50;;;;;;4980820;28;20201;-59
2023/09/25 01:30:21;;;;;;;1.77;1.67;;;21.00;95.60;;;;;;4984579;28;20204;-57
2023/09/25 01:32:51;;;;;;;2.30;1.75;;;21.00;95.60;;;;;;4985109;28;20201;-58
2023/09/25 01:35:19;;;;;;;1.52;1.42;;;21.00;95.60;;;;;;4986834;28;20200;-61
2023/09/25 01:37:48;;;;;;;1.63;1.52;;;21.00;95.60;;;;;;4982576;28;20212;-61
2023/09/25 01:40:17;;;;;;;1.67;1.58;;;21.00;95.60;;;;;;4981962;28;20707;-56
2023/09/25 01:42:45;;;;;;;2.47;1.70;;;21.00;95.60;;;;;;4988758;28;20480;-55
2023/09/25 01:45:13;;;;;;;1.60;1.50;;;21.00;95.60;;;;;;4987888;28;20657;-54
2023/09/25 01:47:42;;;;;;;1.50;1.27;;;20.90;95.50;;;;;;4989841;28;20683;-55
2023/09/25 01:50:10;;;;;;;1.60;1.50;;;21.00;95.60;;;;;;4986689;28;20204;-54
2023/09/25 01:52:37;;;;;;;2.03;1.70;;;20.90;95.60;;;;;;4987366;28;20203;-53
2023/09/25 01:55:05;;;;;;;1.50;1.40;;;20.90;95.60;;;;;;4986513;28;20212;-63
2023/09/25 01:57:33;;;;;;;1.83;1.55;;;20.90;95.60;;;;;;4985295;28;20215;-55
2023/09/25 02:00:00;;;;;;;1.70;1.60;;;21.00;95.70;;;;;;4988273;28;20251;-51
2023/09/25 02:02:27;;;;;;;1.50;1.40;;;20.90;95.60;;;;;;4987148;28;20214;-57
2023/09/25 02:04:53;;;;;;;1.90;1.77;;;20.90;95.60;;;;;;4988015;28;20653;-61
2023/09/25 02:07:21;;;;;;;1.55;1.40;;;20.90;95.60;;;;;;4988913;28;20209;-63
2023/09/25 02:09:48;;;;;;;2.15;1.45;;;20.90;95.70;;;;;;4988787;28;20209;-58
2023/09/25 02:12:15;;;;;;;1.95;1.77;;;20.90;95.70;;;;;;4986041;28;20518;-58
2023/09/25 02:14:43;;;;;;;1.48;1.38;;;20.90;95.70;;;;;;4987919;28;20203;-57
2023/09/25 02:17:09;;;;;;;1.80;1.70;;;20.90;95.70;;;;;;4984776;28;20204;-60
2023/09/25 02:19:36;;;;;;;1.40;1.30;;;20.90;95.70;;;;;;4989506;28;22388;-58
2023/09/25 02:22:06;;;;;;;1.80;1.70;;;20.90;95.70;;;;;;4989265;28;20342;-60
2023/09/25 02:24:33;;;;;;;1.67;1.58;;;20.90;95.70;;;;;;4990289;28;20197;-56
2023/09/25 02:27:00;;;;;;;1.60;1.50;;;20.90;95.70;;;;;;4983263;28;20204;-54
2023/09/25 02:29:26;;;;;;;1.85;1.30;;;20.90;95.70;;;;;;4991006;28;20758;-57
2023/09/25 02:31:55;;;;;;;1.95;1.75;;;20.90;95.70;;;;;;4985683;28;20686;-56
2023/09/25 02:34:22;;;;;;;1.77;1.67;;;20.90;95.70;;;;;;4987794;28;20295;-55
2023/09/25 02:36:49;;;;;;;1.70;1.50;;;20.90;95.70;;;;;;4988265;28;20201;-56
2023/09/25 02:39:16;;;;;;;1.70;1.27;;;20.90;95.70;;;;;;4989178;28;20990;-53
2023/09/25 02:41:43;;;;;;;1.50;1.40;;;20.90;95.70;;;;;;4988249;28;20271;-58
2023/09/25 02:44:10;;;;;;;1.67;1.58;;;20.90;95.70;;;;;;4989098;28;20766;-59
2023/09/25 02:46:37;;;;;;;1.40;1.30;;;20.90;95.80;;;;;;4986765;28;20294;-62
2023/09/25 02:49:05;;;;;;;1.65;1.30;;;20.90;95.80;;;;;;4988189;28;20487;-54
2023/09/25 02:51:32;;;;;;;2.90;1.77;;;20.90;95.80;;;;;;4990434;28;20208;-57
2023/09/25 02:53:58;;;;;;;2.05;1.40;;;20.90;95.80;;;;;;4987405;28;20208;-56
2023/09/25 02:56:25;;;;;;;1.65;1.55;;;20.90;96.20;;;;;;4989684;28;21520;-55
2023/09/25 02:58:52;;;;;;;1.85;1.75;;;20.90;95.80;;;;;;4986555;28;20208;-56
2023/09/25 03:01:18;;;;;;;1.40;1.30;;;20.90;95.80;;;;;;4988117;28;20197;-61
2023/09/25 03:03:45;;;;;;;1.70;1.60;;;20.90;95.80;;;;;;4986778;28;20215;-57
2023/09/25 03:06:13;;;;;;;1.60;1.50;;;20.90;95.80;;;;;;4991304;28;20573;-59
2023/09/25 03:08:40;;;;;;;1.70;1.60;;;20.90;95.80;;;;;;4991206;28;20514;-53
2023/09/25 03:11:06;;;;;;;1.70;1.60;;;20.90;95.80;;;;;;4989203;28;20208;-59
2023/09/25 03:13:33;;;;;;;2.40;1.75;;;20.90;95.90;;;;;;4988715;28;20509;-62
2023/09/25 03:16:00;;;;;;;2.50;1.80;;;20.90;95.80;;;;;;4987208;28;20220;-57
2023/09/25 03:18:27;;;;;;;1.70;1.60;;;20.90;95.80;;;;;;4986964;28;20236;-58
2023/09/25 03:20:54;;;;;;;1.63;1.52;;;20.80;95.80;;;;;;4988381;28;20464;-58
2023/09/25 03:23:22;;;;;;;1.77;1.58;;;20.90;95.80;;;;;;4989225;28;20291;-57
2023/09/25 03:25:48;;;;;;;1.60;1.50;;;20.80;95.80;;;;;;4989607;28;20209;-58
2023/09/25 03:28:15;;;;;;;1.80;1.45;;;20.80;95.80;;;;;;4987377;28;20720;-58
2023/09/25 03:30:42;;;;;;;1.60;1.50;;;20.80;95.80;;;;;;4985349;28;20204;-56
2023/09/25 03:33:09;;;;;;;2.22;1.42;;;20.80;95.80;;;;;;4983599;28;20272;-55
2023/09/25 03:35:37;;;;;;;1.73;1.63;;;20.80;95.80;;;;;;4985999;28;20208;-57
2023/09/25 03:38:04;;;;;;;1.83;1.73;;;20.80;95.80;;;;;;4987407;28;20232;-58
2023/09/25 03:40:32;;;;;;;1.40;1.30;;;20.80;95.80;;;;;;4989403;28;20542;-62
2023/09/25 03:42:59;;;;;;;1.80;1.40;;;20.80;95.80;;;;;;4988099;28;20897;-53
2023/09/25 03:45:26;;;;;;;1.55;1.45;;;20.80;95.80;;;;;;4985891;28;20549;-56
2023/09/25 03:47:53;;;;;;;1.40;1.30;;;20.80;95.80;;;;;;4985213;28;20207;-60
2023/09/25 03:50:20;;;;;;;1.48;1.35;;;20.80;95.80;;;;;;4989307;28;20197;-59
2023/09/25 03:52:46;;;;;;;1.80;1.70;;;20.80;95.80;;;;;;4987020;28;20209;-55
2023/09/25 03:55:13;;;;;;;1.55;1.45;;;20.80;95.80;;;;;;4987360;28;20193;-58
2023/09/25 03:57:41;;;;;;;1.48;1.38;;;20.80;95.80;;;;;;4988873;28;20331;-59
2023/09/25 04:00:09;;;;;;;1.60;1.50;;;20.90;95.90;;;;;;4984644;28;20221;-60
2023/09/25 04:02:35;;;;;;;1.55;1.45;;;20.80;95.90;;;;;;4987415;28;21966;-54
2023/09/25 04:05:02;;;;;;;2.00;1.60;;;20.80;95.90;;;;;;4989017;28;20207;-58
2023/09/25 04:07:29;;;;;;;2.05;1.50;;;20.80;95.90;;;;;;4987866;28;20200;-54
2023/09/25 04:09:56;;;;;;;1.70;1.60;;;20.80;95.90;;;;;;4987162;28;20216;-62
2023/09/25 04:12:22;;;;;;;2.47;2.28;;;20.80;95.90;;;;;;4986190;28;20225;-57
2023/09/25 04:14:53;;;;;;;1.92;1.63;;;20.80;95.90;;;;;;4987570;28;20288;-53
2023/09/25 04:17:20;;;;;;;1.60;1.50;;;20.80;95.90;;;;;;4986869;28;20566;-55
2023/09/25 04:19:48;;;;;;;1.70;1.60;;;20.80;95.90;;;;;;4990080;28;20230;-59
2023/09/25 04:22:15;;;;;;;1.85;1.75;;;20.80;95.90;;;;;;4989547;28;20953;-55
2023/09/25 04:24:41;;;;;;;1.65;1.55;;;20.80;95.90;;;;;;4987165;28;20213;-61
2023/09/25 04:27:09;;;;;;;1.50;1.40;;;20.80;95.90;;;;;;4987557;28;20200;-56
2023/09/25 04:29:38;;;;;;;1.52;1.42;;;20.80;95.90;;;;;;4985372;28;20196;-58
2023/09/25 04:32:06;;;;;;;1.50;1.40;;;20.80;95.90;;;;;;4983160;28;20663;-57
2023/09/25 04:34:35;;;;;;;1.52;1.42;;;20.80;95.90;;;;;;4985909;28;20200;-55
2023/09/25 04:37:03;;;;;;;1.73;1.35;;;20.80;95.90;;;;;;4987995;28;20199;-60
2023/09/25 04:39:32;;;;;;;1.60;1.50;;;20.80;95.90;;;;;;4987852;28;20326;-57
2023/09/25 04:41:59;;;;;;;1.73;1.48;;;20.80;95.90;;;;;;4983213;28;20515;-59
2023/09/25 04:44:26;;;;;;;1.52;1.33;;;20.80;95.90;;;;;;4988216;28;20715;-61
2023/09/25 04:46:53;;;;;;;1.92;1.67;;;20.70;95.90;;;;;;4984865;28;20545;-53
2023/09/25 04:49:21;;;;;;;2.20;1.63;;;20.70;95.90;;;;;;4986483;28;20200;-57
2023/09/25 04:51:48;;;;;;;1.50;1.40;;;20.70;95.90;;;;;;4984760;28;20197;-63
2023/09/25 04:54:15;;;;;;;1.40;1.30;;;20.80;95.90;;;;;;4987528;28;20561;-58
2023/09/25 04:56:41;;;;;;;1.40;1.30;;;20.80;95.90;;;;;;4987027;28;20444;-60
2023/09/25 04:59:08;;;;;;;1.60;1.40;;;20.80;95.90;;;;;;4988059;28;20684;-58
2023/09/25 05:01:35;;;;;;;1.27;1.17;;;20.70;95.90;;;;;;4981954;28;20306;-52
2023/09/25 05:04:01;;;;;;;1.65;1.55;;;20.70;95.90;;;;;;4985106;28;20200;-59
2023/09/25 05:06:30;;;;;;;1.58;1.48;;;20.70;95.90;;;;;;4987504;28;20203;-62
2023/09/25 05:08:56;;;;;;;1.65;1.55;;;20.70;95.90;;;;;;4987904;28;20200;-55
2023/09/25 05:11:23;;;;;;;1.30;1.13;;;20.80;95.90;;;;;;4987067;28;20204;-54
2023/09/25 05:13:50;;;;;;;1.38;1.25;;;20.70;95.90;;;;;;4985131;28;20656;-57
2023/09/25 05:16:17;;;;;;;1.65;1.50;;;20.80;96.00;;;;;;4988118;28;20287;-54
2023/09/25 05:18:44;;;;;;;1.67;1.38;;;20.70;95.90;;;;;;4984915;28;20208;-55
2023/09/25 05:21:11;;;;;;;1.58;1.48;;;20.70;95.90;;;;;;4986230;28;20185;-55
2023/09/25 05:23:39;;;;;;;1.48;1.30;;;20.70;95.90;;;;;;4976907;28;20201;-58
2023/09/25 05:26:06;;;;;;;1.52;1.42;;;20.70;95.90;;;;;;4986309;28;20199;-57
2023/09/25 05:28:33;;;;;;;1.30;1.20;;;20.70;95.90;;;;;;4986676;28;20185;-55
2023/09/25 05:30:59;;;;;;;1.50;1.40;;;20.70;95.90;;;;;;4984773;28;20204;-53
2023/09/25 05:33:26;;;;;;;1.70;1.50;;;20.70;95.90;;;;;;4981975;28;20196;-62
2023/09/25 05:35:54;;;;;;;1.52;1.23;;;20.70;96.00;;;;;;4982239;28;20658;-62
2023/09/25 05:38:20;;;;;;;1.80;1.35;;;20.70;95.90;;;;;;4988003;28;20220;-55
2023/09/25 05:40:48;;;;;;;1.38;1.27;;;20.70;95.90;;;;;;4987464;28;20552;-60
2023/09/25 05:43:15;;;;;;;1.40;1.30;;;20.70;96.00;;;;;;4985819;28;20208;-55
2023/09/25 05:45:42;;;;;;;1.50;1.40;;;20.70;96.00;;;;;;4983894;28;20667;-59
2023/09/25 05:48:09;;;;;;;1.30;1.20;;;20.70;96.00;;;;;;4982156;28;20243;-61
2023/09/25 05:50:36;;;;;;;1.52;1.42;;;20.70;96.00;;;;;;4987079;28;20320;-61
2023/09/25 05:53:04;;;;;;;1.40;1.30;;;20.70;96.00;;;;;;4983897;28;20555;-59
2023/09/25 05:55:31;;;;;;;1.50;1.40;;;20.70;96.00;;;;;;4985976;28;20208;-59
2023/09/25 05:57:59;;;;;;;1.48;1.20;;;20.70;96.00;;;;;;4985996;28;20532;-52
2023/09/25 06:00:26;;;;;;;1.23;1.13;;;20.70;96.40;;;;;;4985099;28;20227;-56
2023/09/25 06:02:53;;;;;;;1.67;1.40;;;20.70;96.00;;;;;;4982948;28;20212;-54
2023/09/25 06:05:20;;;;;;;1.30;1.20;;;20.70;96.00;;;;;;4985491;28;20771;-58
2023/09/25 06:07:47;;;;;;;1.60;1.40;;;20.70;96.00;;;;;;4983976;28;20212;-62
2023/09/25 06:10:15;;;;;;;1.30;1.20;;;20.70;96.00;;;;;;4986030;28;20200;-53
2023/09/25 06:12:43;;;;;;;1.42;1.33;;;20.70;96.00;;;;;;4986067;28;20710;-56
2023/09/25 06:15:12;;;;;;;2.10;1.30;;;20.70;96.00;;;;;;4982666;28;20232;-57
2023/09/25 06:17:39;;;;;;;1.67;1.50;;;20.70;96.10;;;;;;4985538;28;20707;-58
2023/09/25 06:20:13;;;;;;;1.85;1.30;;;20.70;96.10;;;;;;4983283;28;21124;-59
2023/09/25 06:22:40;;;;;;;1.38;1.27;;;20.70;96.10;;;;;;4983304;28;20611;-53
2023/09/25 06:25:11;;;;;;;1.50;1.40;;;20.70;96.10;;;;;;4986681;28;20204;-54
2023/09/25 06:27:39;;;;;;;1.30;1.20;;;20.70;96.10;;;;;;4985199;28;20228;-58
2023/09/25 06:30:09;;;;;;;1.20;1.10;;;20.70;96.10;;;;;;4987953;28;20202;-56
2023/09/25 06:32:37;;;;;;;1.17;1.08;;;20.70;96.10;;;;;;4988153;28;20205;-54
2023/09/25 06:35:06;;;;;;;1.60;1.50;;;20.70;96.10;;;;;;4987538;28;20561;-52
2023/09/25 06:37:34;;;;;;;1.63;1.20;;;20.70;96.20;;;;;;4986775;28;20623;-52
2023/09/25 06:40:03;;;;;;;1.33;1.23;;;20.70;96.20;;;;;;4989407;28;20243;-60
2023/09/25 06:42:29;;;;;;;1.40;1.30;;;20.70;96.20;;;;;;4990664;28;20635;-54
2023/09/25 06:44:56;;;;;;;1.20;1.10;;;20.70;96.20;;;;;;4988193;28;20216;-57
2023/09/25 06:47:23;;;;;;;1.30;1.20;;;20.70;96.20;;;;;;4984462;28;20201;-53
2023/09/25 06:49:51;;;;;;;1.63;1.40;;;20.80;96.20;;;;;;4987772;28;20215;-56
2023/09/25 06:52:18;;;;;;;1.50;1.40;;;20.70;96.20;;;;;;4985480;28;20342;-53
2023/09/25 06:54:45;;;;;;;1.40;1.27;;;20.70;96.20;;;;;;4987118;28;20216;-60
2023/09/25 06:57:12;;;;;;;1.38;1.27;;;20.70;96.20;;;;;;4987882;28;20473;-57
2023/09/25 06:59:38;;;;;;;1.20;1.00;;;20.70;96.20;;;;;;4990087;28;20231;-57
2023/09/25 07:02:05;;;;;;;1.27;1.17;;;20.70;96.20;;;;;;4986384;28;20205;-58
2023/09/25 07:04:32;;;;;;;1.42;1.27;;;20.70;96.20;;;;;;4981821;28;20763;-48
2023/09/25 07:07:00;;;;;;;1.52;1.33;;;20.80;96.60;;;;;;4984251;28;20674;-54
2023/09/25 07:09:27;;;;;;;1.45;1.30;;;20.80;96.30;;;;;;4988346;28;20198;-60
2023/09/25 07:11:54;;;;;;;1.58;1.20;;;20.80;96.30;;;;;;4982146;28;20208;-62
2023/09/25 07:14:21;;;;;;;1.42;1.33;;;20.80;96.40;;;;;;4987073;28;20665;-54
2023/09/25 07:16:48;;;;;;;1.80;1.40;;;20.80;96.30;;;;;;4983558;28;20197;-64
2023/09/25 07:19:15;;;;;;;1.50;1.25;;;20.80;96.10;;;;;;4984401;28;20211;-61
2023/09/25 07:21:41;;;;;;;1.40;1.23;;;20.80;96.20;;;;;;4987987;28;20546;-58
2023/09/25 07:24:10;;;;;;;2.40;1.55;;;20.80;96.20;;;;;;4979838;28;20809;-56
2023/09/25 07:26:36;;;;;;;1.45;1.35;;;20.70;96.20;;;;;;4983368;28;20764;-55
2023/09/25 07:29:03;;;;;;;1.55;1.33;;;20.70;96.20;;;;;;4987409;28;20212;-56
2023/09/25 07:31:30;;;;;;;1.30;1.10;;;20.70;96.20;;;;;;4983109;28;20589;-55
2023/09/25 07:33:58;;;;;;;3.95;1.52;;;20.70;96.20;;;;;;4982327;28;20200;-54
2023/09/25 07:36:25;;;;;;;1.50;1.30;;;20.80;96.20;;;;;;4983174;28;20198;-50
2023/09/25 07:38:52;;;;;;;1.48;1.25;;;20.70;96.20;;;;;;4988120;28;20203;-55
2023/09/25 07:41:20;;;;;;;1.50;1.13;;;20.70;96.20;;;;;;4987416;28;20212;-51
2023/09/25 07:43:48;;;;;;;3.25;1.48;;;20.70;96.20;;;;;;4990851;28;20719;-57
2023/09/25 07:46:17;;;;;;;4.05;1.38;;;20.80;96.30;;;;;;4989318;28;20192;-61
2023/09/25 07:48:44;;;;;;;1.50;1.40;;;20.80;96.30;;;;;;4988044;28;20197;-59
2023/09/25 07:51:12;;;;;;;1.55;1.45;;;20.70;96.30;;;;;;4989043;28;20200;-57
2023/09/25 07:53:39;;;;;;;1.60;1.30;;;20.70;96.30;;;;;;4988557;28;20653;-58
2023/09/25 07:56:06;;;;;;;1.52;1.40;;;20.70;96.30;;;;;;4979906;28;20209;-62
2023/09/25 07:58:38;;;;;;;1.70;1.25;;;20.70;96.30;;;;;;4984769;28;20201;-53
2023/09/25 08:01:08;;;;;;;1.95;1.58;;;20.70;96.30;;;;;;4980944;28;20224;-57
2023/09/25 08:03:37;;;;;;;1.40;1.27;;;20.70;96.30;;;;;;4988235;28;20208;-53
2023/09/25 08:06:05;;;;;;;1.95;1.30;;;20.70;96.30;;;;;;4987832;28;20338;-58
2023/09/25 08:08:32;;;;;;;1.50;1.38;;;20.70;96.30;;;;;;4986072;28;20200;-51
2023/09/25 08:10:59;;;;;;;1.92;1.30;;;20.70;96.40;;;;;;4984551;28;23619;-56
2023/09/25 08:13:26;;;;;;;1.27;1.17;;;20.70;96.40;;;;;;4989451;28;20203;-52
2023/09/25 08:15:54;;;;;;;2.33;1.60;;;20.80;96.40;;;;;;4989096;28;20549;-58
2023/09/25 08:18:21;;;;;;;2.00;1.40;;;20.70;96.40;;;;;;4985227;28;20207;-50
2023/09/25 08:20:48;;;;;;;2.78;1.40;;;20.70;96.40;;;;;;4988206;28;20687;-56
2023/09/25 08:23:14;;;;;;;1.63;1.52;;;20.80;96.50;;;;;;4989962;28;20205;-54
2023/09/25 08:25:41;;;;;;;2.08;1.42;;;20.70;96.40;;;;;;4988097;28;20204;-60
2023/09/25 08:28:08;;;;;;;2.22;1.52;;;20.70;96.40;;;;;;4987603;28;20205;-52
2023/09/25 08:30:34;;;;;;;1.88;1.27;;;20.70;96.40;;;;;;4989516;28;20661;-51
2023/09/25 08:33:02;;;;;;;1.70;1.60;;;20.70;96.50;;;;;;4987535;28;20211;-53
2023/09/25 08:35:29;;;;;;;1.50;1.17;;;20.70;96.40;;;;;;4989226;28;20210;-54
2023/09/25 08:37:56;;;;;;;1.35;1.25;;;20.70;96.50;;;;;;4988435;28;20219;-57
2023/09/25 08:40:23;;;;;;;1.50;1.38;;;20.70;96.50;;;;;;4989721;28;20220;-56
2023/09/25 08:42:51;;;;;;;1.42;1.33;;;20.70;96.50;;;;;;4987866;28;20203;-56
2023/09/25 08:45:21;;;;;;;2.33;1.60;;;20.70;96.50;;;;;;4989244;28;20196;-53
2023/09/25 08:47:47;;;;;;;1.65;1.35;;;20.70;96.50;;;;;;4986691;28;20834;-56
2023/09/25 08:50:17;;;;;;;1.27;1.17;;;20.70;96.50;;;;;;4985583;28;20629;-53
2023/09/25 08:52:44;;;;;;;1.20;0.82;;;20.70;96.50;;;;;;4989757;28;20204;-57
2023/09/25 08:55:11;;;;;;;1.42;1.27;;;20.70;96.50;;;;;;4986200;28;20200;-60
2023/09/25 08:57:39;;;;;;;2.65;1.30;;;20.70;96.50;;;;;;4986982;28;20241;-57
2023/09/25 09:00:11;;;;;;;1.67;1.58;;;20.70;96.50;;;;;;4978519;28;22197;-55
2023/09/25 09:02:39;;;;;;;1.30;1.17;;;20.70;96.50;;;;;;4985462;28;20291;-54
2023/09/25 09:05:06;;;;;;;1.30;1.20;;;20.70;96.50;;;;;;4986685;28;20560;-56
2023/09/25 09:07:35;;;;;;;1.60;1.40;;;20.70;96.60;;;;;;4985414;28;20210;-55
2023/09/25 09:10:01;;;;;;;1.30;1.20;;;20.70;96.50;;;;;;4986203;28;20960;-55
2023/09/25 09:12:28;;;;;;;1.40;1.30;;;20.80;96.60;;;;;;4985423;28;20202;-57
2023/09/25 09:14:55;;;;;;;2.50;1.67;;;20.70;96.60;;;;;;4987098;28;20204;-55
2023/09/25 09:17:26;;;;;;;2.35;1.52;;;20.80;96.60;;;;;;4988384;28;21518;-53
2023/09/25 09:19:53;;;;;;;1.90;1.60;;;20.70;96.60;;;;;;4984057;28;20200;-59
2023/09/25 09:22:21;;;;;;;9.38;1.58;;;20.70;96.70;;;;;;4975943;28;20216;-57
2023/09/25 09:24:51;;;;;;;3.17;1.07;;;20.70;96.80;;;;;;4977563;28;20212;-60
2023/09/25 09:27:20;;;;;;;5.85;1.38;;;20.80;96.80;;;;;;4978379;28;20839;-58
2023/09/25 09:29:49;;;;;;;2.80;1.63;;;20.70;96.70;;;;;;4984050;28;20200;-58
2023/09/25 09:32:16;;;;;;;2.85;1.67;;;20.80;96.70;;;;;;4983273;28;20209;-58
2023/09/25 09:34:43;;;;;;;2.10;1.35;;;20.80;96.80;;;;;;4986410;28;20207;-57
2023/09/25 09:37:11;;;;;;;1.92;1.40;;;20.80;96.80;;;;;;4983640;28;20196;-56
2023/09/25 09:39:38;;;;;;;2.33;1.27;;;20.70;96.70;;;;;;4984328;28;21097;-52
2023/09/25 09:42:09;;;;;;;1.50;1.38;;;20.80;96.80;;;;;;4984493;28;20907;-59
2023/09/25 09:44:36;;;;;;;1.88;1.40;;;20.80;96.80;;;;;;4984289;28;20216;-54
2023/09/25 09:47:05;;;;;;;1.52;1.30;;;20.80;96.80;;;;;;4979631;28;20192;-57
2023/09/25 09:49:35;;;;;;;2.95;1.20;;;20.80;96.80;;;;;;4986491;28;20545;-53
2023/09/25 09:52:03;;;;;;;3.65;1.20;;;20.80;96.80;;;;;;4986003;28;20220;-54
2023/09/25 09:54:33;;;;;;;3.35;1.17;;;20.70;96.80;;;;;;4980133;28;20780;-53
2023/09/25 09:57:00;;;;;;;2.10;1.50;;;20.70;96.80;;;;;;4978439;28;20211;-59
2023/09/25 09:59:28;;;;;;;2.85;1.95;;;20.80;97.20;;;;;;4987543;28;20284;-54
2023/09/25 10:01:57;;;;;;;2.33;1.45;;;20.70;96.80;;;;;;4981645;28;24801;-51
2023/09/25 10:04:24;;;;;;;1.90;1.15;;;20.80;96.90;;;;;;4989297;28;20196;-54
2023/09/25 10:06:53;;;;;;;1.63;1.40;;;20.80;96.90;;;;;;4990495;28;20204;-58
2023/09/25 10:09:20;;;;;;;1.30;1.20;;;20.70;96.90;;;;;;4987173;28;20255;-57
2023/09/25 10:11:48;;;;;;;3.15;1.30;;;20.80;97.00;;;;;;4988632;28;20201;-59
2023/09/25 10:14:20;;;;;;;1.88;1.40;;;20.80;97.00;;;;;;4979210;28;20203;-55
2023/09/25 10:17:00;;;;;;;1.50;1.40;;;20.80;97.00;;;;;;4984629;28;20203;-60
2023/09/25 10:19:47;;;;;;;1.30;1.10;;;20.80;97.00;;;;;;4987606;28;20184;-54
2023/09/25 10:22:19;;;;;;;2.33;1.60;;;20.70;97.00;;;;;;4984018;28;20279;-57
2023/09/25 10:24:47;;;;;;;1.85;1.50;;;20.80;97.00;;;;;;4986660;28;20283;-55
2023/09/25 10:27:16;;;;;;;1.23;1.05;;;20.80;97.00;;;;;;4985260;28;20201;-55
2023/09/25 10:30:08;;;;;;;1.60;1.20;;;20.80;97.10;;;;;;4985836;28;20202;-58
2023/09/25 10:32:38;;;;;;;1.92;1.23;;;20.80;97.10;;;;;;4981868;28;20600;-58
2023/09/25 10:35:40;;;;;;;2.27;1.30;;;20.80;97.10;;;;;;4983867;28;20693;-55
2023/09/25 10:38:19;;;;;;;1.27;1.17;;;20.80;97.10;;;;;;4987697;28;20498;-56
2023/09/25 10:40:49;;;;;;;1.75;1.30;;;20.80;96.90;;;;;;4985307;28;20220;-58
2023/09/25 10:43:17;;;;;;;2.22;1.50;;;20.70;97.20;;;;;;4984977;28;20205;-59
2023/09/25 10:45:44;;;;;;;3.05;1.40;;;20.80;97.60;;;;;;4982139;28;20204;-59
2023/09/25 10:48:12;;;;;;;6.82;1.48;;;20.80;97.40;;;;;;4983713;28;20668;-55
2023/09/25 10:50:39;;;;;;;6.47;1.63;;;20.80;97.40;;;;;;4983665;28;20525;-56
2023/09/25 10:53:07;;;;;;;3.13;1.60;;;20.80;97.40;;;;;;4989874;28;20820;-56
2023/09/25 10:55:34;;;;;;;4.60;1.40;;;20.80;97.50;;;;;;4984171;28;20196;-53
2023/09/25 10:58:02;;;;;;;1.60;1.50;;;20.80;97.40;;;;;;4987138;28;20212;-55
2023/09/25 11:00:29;;;;;;;6.75;1.52;;;20.80;97.40;;;;;;4987814;28;20211;-57
2023/09/25 11:02:56;;;;;;;1.52;1.40;;;20.80;97.40;;;;;;4986707;28;20204;-57
2023/09/25 11:05:25;;;;;;;3.15;1.65;;;20.80;97.40;;;;;;4988012;28;20208;-58
2023/09/25 11:07:53;;;;;;;3.47;1.65;;;20.80;97.40;;;;;;4984691;28;20228;-58
2023/09/25 11:10:19;;;;;;;1.38;1.20;;;20.80;97.40;;;;;;4984851;28;20197;-52
2023/09/25 11:12:47;;;;;;;1.95;1.50;;;20.80;97.40;;;;;;4989585;28;20207;-60
2023/09/25 11:15:17;;;;;;;1.40;1.27;;;20.80;97.50;;;;;;4978300;28;20288;-57
2023/09/25 11:17:45;;;;;;;1.13;1.02;;;20.80;97.60;;;;;;4974565;28;20211;-62
2023/09/25 11:20:18;;;;;;;4.18;1.65;;;20.80;97.80;;;;;;4976932;28;20208;-61
2023/09/25 11:22:48;;;;;;;2.45;1.30;;;20.80;97.70;;;;;;4991924;28;20212;-62
2023/09/25 11:25:15;;;;;;;1.50;1.10;;;20.80;97.80;;;;;;4981220;28;20215;-56
2023/09/25 11:27:52;;;;;;;1.90;1.10;;;20.80;97.70;;;;;;4979577;28;25032;-61
2023/09/25 11:30:20;;;;;;;1.30;1.20;;;20.80;97.70;;;;;;4982367;28;20196;-54
2023/09/25 11:32:46;;;;;;;1.52;1.40;;;20.80;97.70;;;;;;4985359;28;20204;-57
2023/09/25 11:35:18;;;;;;;1.42;1.33;;;20.80;97.70;;;;;;4976217;28;20201;-56
2023/09/25 11:37:58;;;;;;;2.15;1.40;;;20.90;97.60;;;;;;4983998;28;20201;-59
2023/09/25 11:40:25;;;;;;;2.17;1.38;;;20.90;97.80;;;;;;4983904;28;20287;-57
2023/09/25 11:42:52;;;;;;;2.80;1.20;;;20.90;97.70;;;;;;4988213;28;20815;-60
2023/09/25 11:45:20;;;;;;;2.60;1.30;;;20.90;97.60;;;;;;4984302;28;20459;-57
2023/09/25 11:47:47;;;;;;;2.05;1.25;;;20.90;98.00;;;;;;4985757;28;20211;-53
2023/09/25 11:50:15;;;;;;;3.40;2.08;;;20.90;97.70;;;;;;4985431;28;20197;-55
2023/09/25 11:52:43;;;;;;;2.23;1.30;;;21.00;97.80;;;;;;4985645;28;20205;-56
2023/09/25 11:55:12;;;;;;;4.50;1.85;;;21.00;97.70;;;;;;4985745;28;20862;-55
2023/09/25 11:57:41;;;;;;;2.63;1.50;;;21.00;97.70;;;;;;4989312;28;20755;-57
2023/09/25 12:00:09;;;;;;;5.22;1.70;;;21.00;97.70;;;;;;4982907;28;20463;-57
2023/09/25 12:02:36;;;;;;;2.80;1.40;;;21.00;97.60;;;;;;4980885;28;21083;-50
2023/09/25 12:05:03;;;;;;;2.77;1.70;;;21.10;97.70;;;;;;4989426;28;20464;-58
2023/09/25 12:07:30;;;;;;;6.43;2.20;;;21.10;97.70;;;;;;4989648;28;21687;-52
2023/09/25 12:09:57;;;;;;;6.17;1.67;;;21.10;97.70;;;;;;4988781;28;20469;-54
2023/09/25 12:12:25;;;;;;;3.80;1.58;;;21.10;97.70;;;;;;4989217;28;20599;-48
2023/09/25 12:14:53;;;;;;;2.50;1.70;;;21.10;98.10;;;;;;4987972;28;20614;-51
2023/09/25 12:17:20;;;;;;;2.27;2.07;;;21.10;97.70;;;;;;4986126;28;20196;-53
2023/09/25 12:19:46;;;;;;;3.80;2.10;;;21.10;97.80;;;;;;4990182;28;20463;-55
2023/09/25 12:22:14;;;;;;;2.95;1.70;;;21.20;97.90;;;;;;4988185;28;20491;-60
2023/09/25 12:24:41;;;;;;;4.40;1.57;;;21.20;97.80;;;;;;4985333;28;22006;-57
2023/09/25 12:27:08;;;;;;;1.70;1.30;;;21.20;97.90;;;;;;4988328;28;20457;-52
2023/09/25 12:29:37;;;;;;;5.20;1.80;;;21.20;97.90;;;;;;4988743;28;20561;-53
2023/09/25 12:32:04;;;;;;;3.17;1.70;;;21.20;97.90;;;;;;4988605;28;20829;-58
2023/09/25 12:34:30;;;;;;;3.63;1.33;;;21.20;97.90;;;;;;4987765;28;20467;-59
2023/09/25 12:36:57;;;;;;;4.07;2.07;;;21.20;98.30;;;;;;4987377;28;20965;-51
2023/09/25 12:39:24;;;;;;;2.80;1.67;;;21.20;97.90;;;;;;4988835;28;20974;-50
2023/09/25 12:41:50;;;;;;;4.20;1.50;;;21.20;97.90;;;;;;4988879;28;20492;-54
2023/09/25 12:44:18;;;;;;;2.60;1.73;;;21.20;97.90;;;;;;4989461;28;20459;-56
2023/09/25 12:46:47;;;;;;;3.13;1.52;;;21.20;97.90;;;;;;4988724;28;20515;-52
2023/09/25 12:49:14;;;;;;;3.33;1.33;;;21.20;97.90;;;;;;4987973;28;20243;-55
2023/09/25 12:51:40;;;;;;;1.40;1.03;;;21.20;97.90;;;;;;4987622;28;20471;-55